createdAt,value
2019-02-08T00:00:14.264Z,88
2019-02-08T00:05:14.319Z,88
2019-02-08T00:10:14.284Z,88
2019-02-08T00:15:14.281Z,88
2019-02-08T00:20:14.377Z,88
2019-02-08T00:25:14.351Z,88
2019-02-08T00:30:14.315Z,88
2019-02-08T00:35:14.305Z,88
2019-02-08T00:40:14.308Z,88
2019-02-08T00:45:14.333Z,88
2019-02-08T00:50:14.351Z,88
2019-02-08T00:55:14.308Z,88
2019-02-08T01:00:14.319Z,88
2019-02-08T01:05:14.319Z,88
2019-02-08T01:10:14.323Z,88
2019-02-08T01:15:14.326Z,88
2019-02-08T01:20:14.327Z,88
2019-02-08T01:25:14.325Z,88
2019-02-08T01:30:14.326Z,88
2019-02-08T01:35:14.333Z,88
2019-02-08T01:40:14.339Z,88
2019-02-08T01:45:14.335Z,88
2019-02-08T01:50:14.344Z,88
2019-02-08T01:55:14.343Z,88
2019-02-08T02:00:14.347Z,88
2019-02-08T02:05:14.345Z,88
2019-02-08T02:10:14.350Z,88
2019-02-08T02:15:14.355Z,88
2019-02-08T02:20:14.362Z,88
2019-02-08T02:25:14.362Z,88
2019-02-08T02:30:14.366Z,88
2019-02-08T02:35:14.378Z,88
2019-02-08T02:40:14.373Z,87
2019-02-08T02:45:14.365Z,87
2019-02-08T02:50:14.373Z,87
2019-02-08T02:55:14.373Z,87
2019-02-08T03:00:14.400Z,87
2019-02-08T03:05:14.404Z,87
2019-02-08T03:10:14.387Z,87
2019-02-08T03:15:14.387Z,87
2019-02-08T03:20:14.463Z,87
2019-02-08T03:25:14.385Z,87
2019-02-08T03:30:14.392Z,87
2019-02-08T03:35:14.402Z,87
2019-02-08T03:40:14.392Z,87
2019-02-08T03:45:14.399Z,87
2019-02-08T03:50:14.410Z,87
2019-02-08T03:55:14.381Z,87
2019-02-08T04:00:14.381Z,87
2019-02-08T04:05:14.409Z,87
2019-02-08T04:10:14.378Z,87
2019-02-08T04:15:14.378Z,87
2019-02-08T04:20:14.418Z,87
2019-02-08T04:25:14.401Z,87
2019-02-08T04:30:14.421Z,87
2019-02-08T04:35:14.432Z,87
2019-02-08T04:40:14.435Z,87
2019-02-08T04:45:14.400Z,87
2019-02-08T04:50:14.439Z,87
2019-02-08T04:55:14.426Z,87
2019-02-08T05:00:14.399Z,87
2019-02-08T05:05:14.435Z,87
2019-02-08T05:10:14.441Z,87
2019-02-08T05:15:14.449Z,87
2019-02-08T05:20:14.453Z,87
2019-02-08T05:25:14.443Z,88
2019-02-08T05:30:14.453Z,88
2019-02-08T05:35:14.441Z,88
2019-02-08T05:40:14.439Z,88
2019-02-08T05:45:14.465Z,87
2019-02-08T05:50:14.472Z,87
2019-02-08T05:55:14.449Z,87
2019-02-08T06:00:14.445Z,87
2019-02-08T06:05:14.455Z,87
2019-02-08T06:10:14.465Z,87
2019-02-08T06:15:14.461Z,87
2019-02-08T06:20:14.463Z,87
2019-02-08T06:25:14.474Z,87
2019-02-08T06:30:14.485Z,87
2019-02-08T06:35:14.469Z,87
2019-02-08T06:40:14.489Z,87
2019-02-08T06:45:14.473Z,87
2019-02-08T06:50:14.477Z,87
2019-02-08T06:55:14.485Z,87
2019-02-08T07:00:14.490Z,87
2019-02-08T07:05:14.486Z,88
2019-02-08T07:10:14.486Z,88
2019-02-08T07:15:14.486Z,88
2019-02-08T07:20:14.524Z,88
2019-02-08T07:25:18.492Z,88
2019-02-08T07:30:14.498Z,88
2019-02-08T07:35:14.511Z,88
2019-02-08T07:40:14.512Z,88
2019-02-08T07:45:14.519Z,88
2019-02-08T07:50:14.533Z,88
2019-02-08T07:55:14.517Z,88
2019-02-08T08:00:14.502Z,88
2019-02-08T08:05:14.527Z,88
2019-02-08T08:10:14.516Z,89
2019-02-08T08:15:14.518Z,91
2019-02-08T08:20:14.547Z,91
2019-02-08T08:25:14.525Z,91
2019-02-08T08:30:14.569Z,89
2019-02-08T08:35:14.547Z,84
2019-02-08T08:40:14.532Z,79
2019-02-08T08:45:14.532Z,74
2019-02-08T08:50:14.548Z,71
2019-02-08T08:55:14.537Z,70
2019-02-08T09:00:14.546Z,69
2019-02-08T09:05:14.560Z,67
2019-02-08T09:10:14.544Z,69
2019-02-08T09:15:14.549Z,71
2019-02-08T09:20:14.561Z,67
2019-02-08T09:25:14.549Z,64
2019-02-08T09:30:14.550Z,64
2019-02-08T09:35:14.567Z,64
2019-02-08T09:40:14.551Z,64
2019-02-08T09:45:14.812Z,64
2019-02-08T09:50:14.568Z,64
2019-02-08T09:55:14.599Z,64
2019-02-08T10:00:14.581Z,64
2019-02-08T10:05:14.585Z,64
2019-02-08T10:10:14.801Z,64
2019-02-08T10:15:14.569Z,64
2019-02-08T10:20:14.669Z,60
2019-02-08T10:25:14.657Z,58
2019-02-08T10:30:14.571Z,58
2019-02-08T10:35:14.595Z,57
2019-02-08T10:40:14.596Z,58
2019-02-08T10:45:14.602Z,56
2019-02-08T10:50:14.602Z,56
2019-02-08T10:55:14.609Z,56
2019-02-08T11:00:14.594Z,54
2019-02-08T11:05:14.668Z,55
2019-02-08T11:10:14.606Z,58
2019-02-08T11:15:14.633Z,59
2019-02-08T11:20:14.615Z,58
2019-02-08T11:25:14.610Z,55
2019-02-08T11:30:14.605Z,55
2019-02-08T11:35:14.633Z,55
2019-02-08T11:40:14.609Z,56
2019-02-08T11:45:14.611Z,53
2019-02-08T11:50:14.630Z,53
2019-02-08T11:55:14.617Z,54
2019-02-08T12:00:14.690Z,55
2019-02-08T12:05:14.636Z,57
2019-02-08T12:10:14.635Z,56
2019-02-08T12:15:14.645Z,57
2019-02-08T12:20:14.664Z,57
2019-02-08T12:25:14.639Z,57
2019-02-08T12:30:14.651Z,58
2019-02-08T12:35:14.640Z,58
2019-02-08T12:40:14.650Z,59
2019-02-08T12:45:14.641Z,63
2019-02-08T12:50:14.661Z,69
2019-02-08T12:55:14.661Z,76
2019-02-08T13:00:14.740Z,82
2019-02-08T13:05:14.684Z,87
2019-02-08T13:10:14.659Z,87
2019-02-08T13:15:14.661Z,87
2019-02-08T13:20:14.677Z,88
2019-02-08T13:25:14.663Z,88
2019-02-08T13:30:14.690Z,87
2019-02-08T13:35:14.674Z,88
2019-02-08T13:40:14.684Z,89
2019-02-08T13:45:14.676Z,91
2019-02-08T13:50:14.684Z,90
2019-02-08T13:55:14.682Z,90
2019-02-08T14:00:14.703Z,90
2019-02-08T14:05:14.681Z,90
2019-02-08T14:10:14.692Z,90
2019-02-08T14:15:14.683Z,90
2019-02-08T14:20:14.699Z,90
2019-02-08T14:25:14.704Z,90
2019-02-08T14:30:14.679Z,90
2019-02-08T14:35:14.719Z,90
2019-02-08T14:40:14.764Z,90
2019-02-08T14:45:14.755Z,90
2019-02-08T14:50:14.706Z,90
2019-02-08T14:55:14.712Z,89
2019-02-08T15:00:14.708Z,89
2019-02-08T15:05:14.734Z,89
2019-02-08T15:10:14.727Z,89
2019-02-08T15:15:14.738Z,89
2019-02-08T15:20:14.719Z,89
2019-02-08T15:25:14.738Z,88
2019-02-08T15:30:14.723Z,88
2019-02-08T15:35:14.814Z,88
2019-02-08T15:40:14.747Z,88
2019-02-08T15:45:14.752Z,88
2019-02-08T15:50:14.731Z,88
2019-02-08T15:55:14.757Z,88
2019-02-08T16:00:14.746Z,88
2019-02-08T16:05:14.733Z,88
2019-02-08T16:10:14.758Z,88
2019-02-08T16:15:14.758Z,88
2019-02-08T16:20:14.755Z,88
2019-02-08T16:25:14.777Z,88
2019-02-08T16:30:14.758Z,88
2019-02-08T16:35:14.781Z,88
2019-02-08T16:40:14.776Z,88
2019-02-08T16:45:14.767Z,88
2019-02-08T16:50:14.763Z,88
2019-02-08T16:55:14.782Z,88
2019-02-08T17:00:14.770Z,88
2019-02-08T17:05:14.786Z,88
2019-02-08T17:10:14.803Z,88
2019-02-08T17:15:14.788Z,88
2019-02-08T17:20:14.770Z,88
2019-02-08T17:25:14.795Z,88
2019-02-08T17:30:14.765Z,88
2019-02-08T17:35:14.785Z,88
2019-02-08T17:40:14.818Z,88
2019-02-08T17:45:14.799Z,88
2019-02-08T17:50:14.795Z,88
2019-02-08T17:55:14.818Z,88
2019-02-08T18:00:14.796Z,88
2019-02-08T18:05:14.802Z,88
2019-02-08T18:10:14.820Z,88
2019-02-08T18:15:14.812Z,88
2019-02-08T18:20:14.813Z,88
2019-02-08T18:25:14.830Z,88
2019-02-08T18:30:14.808Z,88
2019-02-08T18:35:14.827Z,88
2019-02-08T18:40:14.832Z,88
2019-02-08T18:45:14.817Z,88
2019-02-08T18:50:14.827Z,88
2019-02-08T18:55:14.838Z,88
2019-02-08T19:00:14.853Z,88
2019-02-08T19:05:14.850Z,88
2019-02-08T19:10:14.844Z,88
2019-02-08T19:15:14.835Z,88
2019-02-08T19:20:14.838Z,88
2019-02-08T19:25:14.850Z,88
2019-02-08T19:30:14.850Z,88
2019-02-08T19:35:14.845Z,88
2019-02-08T19:40:14.865Z,88
2019-02-08T19:45:14.844Z,88
2019-02-08T19:50:14.849Z,88
2019-02-08T19:55:14.868Z,88
2019-02-08T20:00:14.862Z,88
2019-02-08T20:05:14.858Z,88
2019-02-08T20:10:14.871Z,88
2019-02-08T20:15:14.862Z,88
2019-02-08T20:20:14.865Z,88
2019-02-08T20:25:14.885Z,88
2019-02-08T20:30:14.890Z,88
2019-02-08T20:35:14.883Z,88
2019-02-08T20:40:14.931Z,88
2019-02-08T20:45:14.884Z,88
2019-02-08T20:50:14.932Z,88
2019-02-08T20:55:14.891Z,88
2019-02-08T21:00:14.883Z,88
2019-02-08T21:05:14.888Z,88
2019-02-08T21:10:14.917Z,88
2019-02-08T21:15:14.890Z,88
2019-02-08T21:20:14.911Z,88
2019-02-08T21:25:14.912Z,88
2019-02-08T21:30:14.903Z,88
2019-02-08T21:35:14.918Z,88
2019-02-08T21:40:15.014Z,88
2019-02-08T21:45:14.911Z,88
2019-02-08T21:50:14.905Z,88
2019-02-08T21:55:14.939Z,88
2019-02-08T22:00:14.929Z,88
2019-02-08T22:05:14.935Z,88
2019-02-08T22:10:14.967Z,88
2019-02-08T22:15:14.931Z,88
2019-02-08T22:20:14.920Z,88
2019-02-08T22:25:14.971Z,88
2019-02-08T22:30:14.950Z,88
2019-02-08T22:35:15.152Z,88
2019-02-08T22:40:14.981Z,88
2019-02-08T22:45:14.936Z,88
2019-02-08T22:50:14.922Z,88
2019-02-08T22:55:14.998Z,88
2019-02-08T23:00:14.949Z,88
2019-02-08T23:05:14.959Z,88
2019-02-08T23:10:14.972Z,88
2019-02-08T23:15:14.974Z,88
2019-02-08T23:20:14.968Z,88
2019-02-08T23:25:14.978Z,88
2019-02-08T23:30:14.966Z,88
2019-02-08T23:35:14.984Z,88
2019-02-08T23:40:14.990Z,88
2019-02-08T23:45:14.986Z,88
2019-02-08T23:50:14.995Z,88
2019-02-08T23:55:14.978Z,88
